Time;durP1;ratioP1;P1;durP2;ratioP2;P2;SDS_P1;SDS_P2;PMS_P1;PMS_P2;Temp;Humidity;BMP_temperature;BMP_pressure;BME280_temperature;BME280_humidity;BME280_pressure;Samples;Min_cycle;Max_cycle;Signal;HPM_P1;HPM_P2
2023/04/01 00:00:09;;;;;;;2.17;1.00;;;16.30;59.50;;;;;;5051580;28;20207;-64
2023/04/01 00:02:35;;;;;;;1.48;0.82;;;16.30;59.50;;;;;;5052300;28;20545;-64
2023/04/01 00:05:01;;;;;;;1.13;0.68;;;16.20;59.50;;;;;;5051908;28;20699;-64
2023/04/01 00:07:27;;;;;;;1.67;0.70;;;16.20;59.50;;;;;;5051538;28;20179;-63
2023/04/01 00:09:52;;;;;;;1.38;0.70;;;16.20;59.50;;;;;;5051826;28;20197;-63
2023/04/01 00:12:18;;;;;;;1.60;0.70;;;16.20;59.60;;;;;;5052001;28;20203;-63
2023/04/01 00:14:43;;;;;;;1.45;1.00;;;16.20;59.60;;;;;;5050976;28;20184;-63
2023/04/01 00:17:09;;;;;;;1.20;0.80;;;16.20;59.60;;;;;;5052124;28;20185;-63
2023/04/01 00:19:35;;;;;;;1.20;0.68;;;16.20;59.60;;;;;;5051991;28;20608;-62
2023/04/01 00:22:01;;;;;;;1.70;0.80;;;16.20;59.60;;;;;;5050950;28;20546;-62
2023/04/01 00:24:26;;;;;;;1.67;0.90;;;16.20;59.60;;;;;;5051989;28;20171;-62
2023/04/01 00:26:52;;;;;;;3.60;1.20;;;16.10;59.60;;;;;;5051598;28;20654;-63
2023/04/01 00:29:17;;;;;;;1.40;0.70;;;16.10;59.60;;;;;;5051263;28;20179;-64
2023/04/01 00:31:43;;;;;;;2.10;0.70;;;16.10;59.60;;;;;;5051605;28;20170;-64
2023/04/01 00:34:08;;;;;;;0.70;0.55;;;16.10;59.60;;;;;;5052015;28;20179;-64
2023/04/01 00:36:34;;;;;;;2.25;0.70;;;16.10;59.60;;;;;;5051143;28;20175;-63
2023/04/01 00:39:00;;;;;;;1.25;0.85;;;16.10;59.60;;;;;;5051563;28;20213;-63
2023/04/01 00:41:26;;;;;;;1.45;0.70;;;16.10;59.60;;;;;;5052298;28;20258;-63
2023/04/01 00:43:51;;;;;;;0.70;0.60;;;16.10;60.30;;;;;;5051356;28;20179;-63
2023/04/01 00:46:17;;;;;;;1.15;0.73;;;16.10;59.60;;;;;;5052480;28;20175;-63
2023/04/01 00:49:01;;;;;;;0.95;0.77;;;16.10;59.60;;;;;;5051965;28;20529;-64
2023/04/01 00:51:27;;;;;;;1.10;0.80;;;16.10;59.60;;;;;;5052451;28;20218;-63
2023/04/01 00:53:54;;;;;;;1.40;0.63;;;16.00;59.50;;;;;;5051556;28;20171;-63
2023/04/01 00:56:26;;;;;;;0.60;0.60;;;16.10;59.60;;;;;;5054285;28;20171;-67
2023/04/01 00:58:56;;;;;;;1.30;0.77;;;16.00;59.50;;;;;;5055931;28;20349;-64
2023/04/01 01:01:22;;;;;;;1.27;0.70;;;16.00;59.50;;;;;;5054905;28;20171;-64
2023/04/01 01:03:47;;;;;;;4.05;1.17;;;15.90;59.50;;;;;;5053882;28;20630;-63
2023/04/01 01:06:25;;;;;;;1.80;1.02;;;16.00;59.50;;;;;;5055860;28;20407;-63
2023/04/01 01:09:07;;;;;;;1.10;0.60;;;16.00;59.50;;;;;;5054499;28;20163;-63
2023/04/01 01:12:10;;;;;;;1.23;0.90;;;16.00;59.50;;;;;;5054201;28;20179;-63
2023/04/01 01:14:48;;;;;;;0.80;0.57;;;16.00;59.60;;;;;;5055689;28;20170;-63
2023/04/01 01:17:32;;;;;;;0.95;0.63;;;16.00;59.50;;;;;;5038218;28;20201;-63
2023/04/01 01:20:10;;;;;;;2.13;1.08;;;16.00;59.50;;;;;;5054247;28;20245;-62
2023/04/01 01:22:43;;;;;;;0.65;0.60;;;16.00;59.50;;;;;;5054400;28;20222;-62
2023/04/01 01:25:20;;;;;;;0.65;0.65;;;16.00;59.50;;;;;;5053532;28;20596;-62
2023/04/01 01:28:18;;;;;;;1.00;0.80;;;16.00;59.50;;;;;;5053888;28;20680;-63
2023/04/01 01:30:50;;;;;;;0.65;0.63;;;16.00;59.50;;;;;;5043222;28;20179;-64
2023/04/01 01:33:48;;;;;;;2.70;0.70;;;15.90;59.40;;;;;;5054680;28;20171;-64
2023/04/01 01:36:13;;;;;;;2.30;1.00;;;16.00;59.50;;;;;;5052299;28;20720;-63
2023/04/01 01:38:39;;;;;;;0.93;0.63;;;16.00;59.40;;;;;;5053434;28;20199;-63
2023/04/01 01:41:05;;;;;;;1.00;0.80;;;15.90;59.40;;;;;;5054942;28;20168;-62
2023/04/01 01:43:36;;;;;;;1.55;0.70;;;16.00;59.40;;;;;;5037467;28;20194;-63
2023/04/01 01:46:06;;;;;;;0.70;0.60;;;16.00;59.50;;;;;;5037098;28;20183;-63
2023/04/01 01:48:32;;;;;;;1.58;1.05;;;15.90;59.40;;;;;;5055047;28;20183;-63
2023/04/01 01:50:58;;;;;;;0.50;0.50;;;16.00;59.40;;;;;;5037130;28;20194;-64
2023/04/01 01:53:24;;;;;;;1.73;0.68;;;15.90;59.40;;;;;;5036845;28;20181;-63
2023/04/01 01:55:49;;;;;;;1.08;0.80;;;15.90;59.40;;;;;;5054756;28;20175;-63
2023/04/01 01:58:22;;;;;;;1.90;0.73;;;15.90;59.40;;;;;;5054885;28;20684;-64
2023/04/01 02:01:01;;;;;;;0.93;0.70;;;15.90;59.40;;;;;;5053764;28;20179;-64
2023/04/01 02:03:28;;;;;;;0.80;0.80;;;15.90;59.40;;;;;;5038561;28;20221;-63
2023/04/01 02:05:55;;;;;;;0.60;0.60;;;15.90;59.40;;;;;;5053316;28;20175;-63
2023/04/01 02:08:30;;;;;;;0.65;0.65;;;15.90;59.40;;;;;;5052864;28;20630;-63
2023/04/01 02:11:01;;;;;;;1.20;0.63;;;15.90;59.40;;;;;;5053379;28;20197;-63
2023/04/01 02:13:58;;;;;;;1.60;0.80;;;15.90;59.40;;;;;;5052707;28;20342;-63
2023/04/01 02:16:49;;;;;;;1.52;0.88;;;15.90;59.40;;;;;;5053993;28;20286;-63
2023/04/01 02:19:15;;;;;;;1.17;0.80;;;15.90;59.40;;;;;;5038631;28;20203;-62
2023/04/01 02:21:40;;;;;;;1.15;0.68;;;15.90;59.40;;;;;;5052323;28;20242;-62
2023/04/01 02:24:08;;;;;;;0.70;0.70;;;15.90;59.50;;;;;;5054329;28;20179;-62
2023/04/01 02:26:34;;;;;;;1.52;1.10;;;15.90;59.40;;;;;;5036968;28;20171;-63
2023/04/01 02:28:59;;;;;;;1.20;0.70;;;15.90;59.50;;;;;;5052348;28;20265;-64
2023/04/01 02:31:25;;;;;;;0.68;0.68;;;15.80;59.40;;;;;;5054354;28;20624;-64
2023/04/01 02:33:50;;;;;;;0.98;0.82;;;15.90;59.50;;;;;;5054134;28;20564;-63
2023/04/01 02:36:16;;;;;;;1.25;0.90;;;15.90;59.50;;;;;;5052180;28;20645;-63
2023/04/01 02:38:42;;;;;;;1.00;0.60;;;15.90;59.50;;;;;;5053998;28;20207;-63
2023/04/01 02:41:08;;;;;;;1.23;0.90;;;15.80;59.40;;;;;;5036291;28;20175;-62
2023/04/01 02:43:33;;;;;;;1.38;0.75;;;15.90;59.40;;;;;;5053564;28;20182;-63
2023/04/01 02:45:59;;;;;;;1.27;0.60;;;15.90;59.40;;;;;;5036056;28;20202;-63
2023/04/01 02:48:24;;;;;;;1.17;1.00;;;15.90;59.50;;;;;;5053356;28;20172;-63
2023/04/01 02:50:50;;;;;;;1.00;0.80;;;15.90;59.50;;;;;;5053708;28;20245;-63
2023/04/01 02:53:16;;;;;;;0.85;0.70;;;15.80;59.40;;;;;;5054097;28;20173;-63
2023/04/01 02:55:41;;;;;;;2.05;1.00;;;15.80;59.40;;;;;;5052972;28;20588;-63
2023/04/01 02:58:07;;;;;;;0.95;0.60;;;15.80;59.40;;;;;;5053874;28;20672;-64
2023/04/01 03:00:32;;;;;;;1.10;0.80;;;15.70;59.30;;;;;;5053703;28;20618;-64
2023/04/01 03:02:58;;;;;;;2.33;1.15;;;15.80;59.40;;;;;;5052773;28;20171;-64
2023/04/01 03:05:24;;;;;;;1.02;0.70;;;15.80;59.40;;;;;;5053492;28;20665;-63
2023/04/01 03:07:49;;;;;;;0.82;0.65;;;15.80;59.30;;;;;;5053577;28;20163;-62
2023/04/01 03:10:15;;;;;;;1.10;0.80;;;15.80;59.40;;;;;;5053035;28;20194;-62
2023/04/01 03:12:40;;;;;;;1.60;0.95;;;15.80;59.40;;;;;;5053569;28;20249;-62
2023/04/01 03:15:06;;;;;;;2.53;1.13;;;15.80;59.40;;;;;;5053529;28;20176;-62
2023/04/01 03:17:32;;;;;;;2.58;0.73;;;15.80;59.40;;;;;;5052219;28;20178;-62
2023/04/01 03:19:57;;;;;;;2.97;1.20;;;15.80;59.40;;;;;;5052994;28;20214;-62
2023/04/01 03:22:23;;;;;;;1.08;0.80;;;15.80;59.40;;;;;;5053249;28;20223;-62
2023/04/01 03:24:48;;;;;;;1.30;0.77;;;15.80;59.30;;;;;;5052584;28;20262;-62
2023/04/01 03:27:14;;;;;;;1.45;1.05;;;15.80;59.30;;;;;;5053481;28;20206;-62
2023/04/01 03:29:40;;;;;;;1.25;0.70;;;15.70;59.30;;;;;;5053277;28;20183;-63
2023/04/01 03:32:05;;;;;;;1.42;0.70;;;15.70;59.30;;;;;;5052159;28;20178;-64
2023/04/01 03:34:31;;;;;;;0.70;0.70;;;15.80;59.30;;;;;;5053260;28;20182;-63
2023/04/01 03:36:56;;;;;;;1.70;0.75;;;15.80;59.30;;;;;;5053022;28;20274;-63
2023/04/01 03:39:22;;;;;;;1.60;0.60;;;15.70;59.30;;;;;;5052336;28;20207;-62
2023/04/01 03:41:48;;;;;;;0.88;0.65;;;15.70;59.30;;;;;;5053119;28;20273;-62
2023/04/01 03:44:13;;;;;;;1.23;0.55;;;15.70;59.30;;;;;;5053030;28;20197;-62
2023/04/01 03:46:39;;;;;;;0.80;0.50;;;15.70;59.30;;;;;;5052447;28;20264;-63
2023/04/01 03:49:11;;;;;;;0.80;0.70;;;15.80;59.30;;;;;;5052479;28;20171;-62
2023/04/01 03:51:43;;;;;;;1.20;0.57;;;15.80;59.40;;;;;;5052712;28;20195;-62
2023/04/01 03:54:09;;;;;;;2.30;1.05;;;15.80;59.40;;;;;;5053170;28;20183;-62
2023/04/01 03:56:35;;;;;;;0.80;0.65;;;15.70;59.30;;;;;;5052993;28;20202;-63
2023/04/01 03:59:05;;;;;;;0.70;0.70;;;15.70;59.30;;;;;;5051839;28;20238;-64
2023/04/01 04:01:31;;;;;;;1.20;0.52;;;15.60;59.30;;;;;;5052703;28;20175;-63
2023/04/01 04:03:56;;;;;;;0.65;0.50;;;15.70;59.30;;;;;;5052664;28;20175;-63
2023/04/01 04:06:22;;;;;;;1.02;0.65;;;15.70;59.30;;;;;;5052127;28;20178;-62
2023/04/01 04:08:48;;;;;;;0.60;0.60;;;15.70;59.30;;;;;;5052591;28;20206;-62
2023/04/01 04:11:14;;;;;;;1.85;0.77;;;15.70;59.30;;;;;;5052657;28;20175;-62
2023/04/01 04:13:39;;;;;;;0.70;0.70;;;15.70;59.50;;;;;;5052120;28;20183;-61
2023/04/01 04:16:05;;;;;;;1.10;0.70;;;15.70;59.30;;;;;;5052298;28;20186;-61
2023/04/01 04:18:31;;;;;;;0.82;0.57;;;15.70;59.30;;;;;;5052683;28;20195;-62
2023/04/01 04:20:56;;;;;;;0.80;0.80;;;15.70;59.30;;;;;;5051556;28;20219;-62
2023/04/01 04:23:22;;;;;;;0.50;0.50;;;15.70;59.30;;;;;;5052524;28;20167;-62
2023/04/01 04:25:58;;;;;;;1.02;0.57;;;15.70;59.30;;;;;;5052423;28;20187;-62
2023/04/01 04:28:24;;;;;;;0.80;0.65;;;15.70;59.30;;;;;;5052000;28;20175;-64
2023/04/01 04:30:50;;;;;;;0.95;0.65;;;15.70;59.30;;;;;;5056281;28;20182;-64
2023/04/01 04:33:15;;;;;;;0.80;0.80;;;15.60;59.30;;;;;;5056598;28;20167;-64
2023/04/01 04:35:41;;;;;;;0.88;0.65;;;15.60;59.30;;;;;;5055768;28;20183;-62
2023/04/01 04:38:06;;;;;;;0.68;0.68;;;15.70;59.30;;;;;;5056405;28;20171;-62
2023/04/01 04:40:32;;;;;;;0.90;0.60;;;15.60;59.30;;;;;;5056376;28;20222;-63
2023/04/01 04:42:57;;;;;;;0.70;0.70;;;15.70;59.30;;;;;;5055489;28;20179;-63
2023/04/01 04:45:23;;;;;;;0.68;0.68;;;15.70;59.40;;;;;;5056365;28;20167;-63
2023/04/01 04:47:48;;;;;;;0.55;0.55;;;15.70;59.30;;;;;;5056206;28;20179;-63
2023/04/01 04:50:14;;;;;;;0.95;0.63;;;15.60;59.20;;;;;;5055558;28;20704;-62
2023/04/01 04:52:40;;;;;;;1.25;0.70;;;15.60;59.20;;;;;;5056526;28;20175;-63
2023/04/01 04:55:05;;;;;;;0.85;0.60;;;15.70;59.30;;;;;;5055419;28;20171;-63
2023/04/01 04:57:31;;;;;;;0.63;0.50;;;15.60;59.30;;;;;;5056106;28;20220;-63
2023/04/01 04:59:56;;;;;;;1.17;0.50;;;15.60;59.30;;;;;;5055706;28;20203;-64
2023/04/01 05:02:22;;;;;;;0.73;0.73;;;15.60;59.30;;;;;;5055604;28;20212;-65
2023/04/01 05:04:47;;;;;;;0.65;0.60;;;15.60;59.30;;;;;;5056159;28;20308;-64
2023/04/01 05:07:13;;;;;;;0.70;0.65;;;15.60;59.30;;;;;;5055976;28;20250;-62
2023/04/01 05:09:41;;;;;;;0.55;0.55;;;15.60;59.30;;;;;;5055343;28;20250;-62
2023/04/01 05:12:07;;;;;;;0.93;0.50;;;15.60;59.30;;;;;;5055731;28;20661;-62
2023/04/01 05:14:32;;;;;;;0.55;0.55;;;15.60;59.30;;;;;;5055774;28;20183;-62
2023/04/01 05:16:58;;;;;;;0.40;0.40;;;15.70;59.40;;;;;;5054702;28;20172;-62
2023/04/01 05:19:23;;;;;;;0.65;0.65;;;15.60;59.30;;;;;;5055589;28;20215;-62
2023/04/01 05:21:49;;;;;;;0.68;0.68;;;15.60;59.30;;;;;;5055182;28;20219;-62
2023/04/01 05:24:15;;;;;;;0.80;0.60;;;15.60;59.30;;;;;;5054963;28;20182;-62
2023/04/01 05:26:40;;;;;;;0.70;0.70;;;15.70;59.40;;;;;;5055534;28;20167;-62
2023/04/01 05:29:06;;;;;;;0.70;0.55;;;15.60;59.30;;;;;;5055463;28;20206;-63
2023/04/01 05:31:31;;;;;;;1.38;0.80;;;15.60;59.30;;;;;;5054700;28;20175;-64
2023/04/01 05:33:57;;;;;;;0.60;0.60;;;15.60;59.30;;;;;;5055003;28;20179;-64
2023/04/01 05:36:22;;;;;;;0.70;0.65;;;15.70;59.40;;;;;;5055419;28;20187;-63
2023/04/01 05:38:48;;;;;;;0.82;0.60;;;15.60;59.30;;;;;;5054315;28;20210;-62
2023/04/01 05:41:14;;;;;;;0.50;0.50;;;15.60;60.00;;;;;;5054800;28;20193;-62
2023/04/01 05:43:40;;;;;;;0.93;0.73;;;15.60;59.30;;;;;;5055203;28;20241;-63
2023/04/01 05:46:06;;;;;;;0.77;0.77;;;15.60;59.40;;;;;;5054272;28;20703;-63
2023/04/01 05:48:33;;;;;;;1.08;0.50;;;15.60;59.40;;;;;;5055424;28;20179;-64
2023/04/01 05:50:59;;;;;;;0.52;0.52;;;15.60;59.40;;;;;;5054994;28;20190;-63
2023/04/01 05:53:24;;;;;;;0.60;0.60;;;15.60;59.40;;;;;;5054477;28;20171;-63
2023/04/01 05:55:50;;;;;;;0.40;0.40;;;15.60;59.40;;;;;;5054845;28;20574;-63
2023/04/01 05:58:16;;;;;;;0.73;0.70;;;15.60;59.30;;;;;;5054074;28;20175;-63
2023/04/01 06:00:41;;;;;;;0.85;0.85;;;15.60;59.30;;;;;;5055028;28;20661;-63
2023/04/01 06:03:10;;;;;;;0.55;0.55;;;15.70;59.30;;;;;;5054811;28;20171;-64
2023/04/01 06:05:40;;;;;;;0.60;0.60;;;15.80;59.20;;;;;;5054141;28;20289;-63
2023/04/01 06:08:13;;;;;;;0.60;0.60;;;15.90;59.00;;;;;;5054619;28;20175;-62
2023/04/01 06:10:59;;;;;;;0.60;0.60;;;16.10;58.90;;;;;;5054630;28;20183;-62
2023/04/01 06:13:34;;;;;;;0.52;0.50;;;16.20;58.70;;;;;;5054122;28;20179;-62
2023/04/01 06:16:44;;;;;;;0.68;0.60;;;16.20;58.60;;;;;;5054476;28;20178;-62
2023/04/01 06:19:16;;;;;;;0.40;0.40;;;16.20;58.50;;;;;;5054342;28;20751;-63
2023/04/01 06:21:51;;;;;;;0.68;0.60;;;16.30;59.20;;;;;;5053545;28;20319;-63
2023/04/01 06:24:52;;;;;;;0.73;0.47;;;16.40;58.50;;;;;;5053567;28;20210;-64
2023/04/01 06:27:38;;;;;;;0.50;0.50;;;16.60;58.30;;;;;;5041609;28;20207;-64
2023/04/01 06:30:31;;;;;;;0.30;0.30;;;16.80;58.00;;;;;;5053988;28;20181;-65
2023/04/01 06:33:18;;;;;;;0.57;0.50;;;16.90;57.70;;;;;;5054221;28;20206;-64
2023/04/01 06:35:48;;;;;;;0.73;0.73;;;17.10;57.50;;;;;;5053051;28;20178;-64
2023/04/01 06:38:40;;;;;;;0.40;0.40;;;17.10;57.40;;;;;;5053246;28;20304;-63
2023/04/01 06:41:27;;;;;;;0.45;0.45;;;17.20;57.20;;;;;;5052409;28;20190;-66
2023/04/01 06:44:12;;;;;;;0.55;0.55;;;17.30;57.10;;;;;;5052620;28;20262;-64
2023/04/01 06:46:42;;;;;;;0.80;0.60;;;17.40;57.00;;;;;;5038167;28;20660;-64
2023/04/01 06:49:33;;;;;;;0.60;0.40;;;17.40;56.90;;;;;;5053468;28;20171;-63
2023/04/01 06:52:15;;;;;;;0.55;0.55;;;17.50;56.90;;;;;;5051441;28;20179;-63
2023/04/01 06:54:44;;;;;;;0.50;0.50;;;17.50;56.90;;;;;;5052401;28;20179;-64
2023/04/01 06:57:33;;;;;;;0.68;0.60;;;17.50;56.90;;;;;;5052587;28;20179;-64
2023/04/01 07:00:00;;;;;;;0.52;0.52;;;17.60;56.80;;;;;;5053352;28;20222;-64
2023/04/01 07:02:34;;;;;;;0.50;0.50;;;17.60;56.80;;;;;;5035349;28;20342;-64
2023/04/01 07:04:59;;;;;;;0.45;0.45;;;17.70;56.60;;;;;;5052408;28;20181;-64
2023/04/01 07:07:41;;;;;;;0.35;0.32;;;17.60;56.60;;;;;;5052510;28;20175;-64
2023/04/01 07:10:13;;;;;;;1.00;0.60;;;17.70;56.60;;;;;;5035985;28;20175;-61
2023/04/01 07:12:48;;;;;;;0.43;0.30;;;17.70;56.80;;;;;;5035907;28;20638;-62
2023/04/01 07:15:26;;;;;;;0.60;0.60;;;17.70;56.80;;;;;;5036712;28;20669;-65
2023/04/01 07:18:07;;;;;;;1.25;0.50;;;17.70;57.00;;;;;;5051459;28;20182;-63
2023/04/01 07:20:33;;;;;;;1.17;0.85;;;17.70;57.90;;;;;;5035867;28;20682;-63
2023/04/01 07:23:00;;;;;;;0.40;0.40;;;17.70;57.50;;;;;;5051235;28;20178;-65
2023/04/01 07:25:53;;;;;;;1.30;0.70;;;17.60;57.70;;;;;;5052956;28;20179;-66
2023/04/01 07:28:18;;;;;;;1.38;0.77;;;17.60;58.00;;;;;;5050037;28;20248;-64
2023/04/01 07:30:44;;;;;;;1.67;0.73;;;17.50;58.20;;;;;;5055978;28;20178;-65
2023/04/01 07:33:16;;;;;;;0.80;0.80;;;17.40;58.20;;;;;;5055306;28;20186;-64
2023/04/01 07:35:59;;;;;;;1.02;0.75;;;17.40;58.60;;;;;;5015290;28;20184;-64
2023/04/01 07:38:47;;;;;;;3.22;0.80;;;17.30;59.00;;;;;;5042846;28;20173;-64
2023/04/01 07:41:19;;;;;;;1.75;0.70;;;17.20;59.10;;;;;;5056314;28;20171;-64
2023/04/01 07:43:59;;;;;;;1.63;0.90;;;17.20;59.20;;;;;;5050405;28;20633;-64
2023/04/01 07:46:46;;;;;;;1.23;0.82;;;17.10;59.50;;;;;;5056069;28;20167;-65
2023/04/01 07:49:22;;;;;;;2.00;0.93;;;17.10;59.60;;;;;;5061564;28;20179;-63
2023/04/01 07:52:00;;;;;;;1.52;1.42;;;17.00;59.70;;;;;;5051749;28;20198;-64
2023/04/01 07:54:55;;;;;;;1.77;0.95;;;17.00;59.90;;;;;;5035280;28;20189;-64
2023/04/01 07:58:15;;;;;;;3.63;1.10;;;17.00;59.90;;;;;;5051507;28;20183;-63
2023/04/01 08:00:56;;;;;;;1.40;0.90;;;16.90;60.10;;;;;;5030750;28;20226;-65
2023/04/01 08:03:43;;;;;;;1.23;0.80;;;16.90;60.50;;;;;;5054046;28;20179;-67
2023/04/01 08:06:12;;;;;;;2.75;1.02;;;16.90;60.30;;;;;;5072315;28;20175;-65
2023/04/01 08:08:40;;;;;;;2.00;0.95;;;16.80;60.10;;;;;;5072901;28;20202;-67
2023/04/01 08:11:43;;;;;;;1.25;0.80;;;16.80;60.10;;;;;;5072502;28;20167;-65
2023/04/01 08:14:21;;;;;;;1.55;1.13;;;16.90;60.00;;;;;;5066847;28;20176;-65
2023/04/01 08:17:05;;;;;;;1.23;0.82;;;16.90;60.80;;;;;;5051357;28;20206;-66
2023/04/01 08:19:51;;;;;;;0.68;0.68;;;16.90;59.90;;;;;;5050761;28;20203;-65
2023/04/01 08:22:30;;;;;;;1.33;0.80;;;16.90;59.90;;;;;;5051387;28;20575;-65
2023/04/01 08:24:59;;;;;;;0.80;0.70;;;16.90;59.90;;;;;;5051528;28;20178;-67
2023/04/01 08:27:44;;;;;;;1.55;0.70;;;16.90;59.90;;;;;;5050725;28;20179;-67
2023/04/01 08:30:26;;;;;;;1.67;0.88;;;16.80;59.80;;;;;;5037146;28;20261;-66
2023/04/01 08:32:58;;;;;;;1.77;1.00;;;16.80;59.90;;;;;;5051388;28;20202;-68
2023/04/01 08:35:57;;;;;;;0.63;0.63;;;16.80;60.00;;;;;;5052599;28;20186;-66
2023/04/01 08:38:43;;;;;;;1.35;1.00;;;16.80;60.00;;;;;;5060716;28;20296;-67
2023/04/01 08:41:29;;;;;;;1.48;1.15;;;16.70;60.20;;;;;;5070635;28;20213;-66
2023/04/01 08:44:13;;;;;;;1.60;0.80;;;16.70;61.00;;;;;;5071001;28;20179;-66
2023/04/01 08:46:48;;;;;;;1.42;1.08;;;16.70;60.20;;;;;;5072504;28;20170;-67
2023/04/01 08:49:29;;;;;;;1.13;0.75;;;16.70;60.20;;;;;;5057237;28;20214;-66
2023/04/01 08:52:16;;;;;;;1.90;0.90;;;16.80;61.00;;;;;;5051981;28;20661;-66
2023/04/01 08:54:44;;;;;;;1.45;0.70;;;16.80;60.00;;;;;;5051458;28;20183;-66
2023/04/01 08:57:15;;;;;;;0.80;0.80;;;16.80;60.10;;;;;;5052485;28;20182;-66
2023/04/01 08:59:52;;;;;;;0.68;0.60;;;16.80;60.10;;;;;;5051184;28;20265;-66
2023/04/01 09:02:33;;;;;;;0.88;0.88;;;16.80;60.10;;;;;;5051718;28;20174;-66
2023/04/01 09:05:37;;;;;;;0.80;0.80;;;16.80;60.10;;;;;;5051988;28;20179;-65
2023/04/01 09:08:17;;;;;;;1.92;1.00;;;16.70;60.20;;;;;;5035302;28;20182;-65
2023/04/01 09:11:01;;;;;;;1.23;0.63;;;16.70;60.20;;;;;;5051018;28;20205;-66
2023/04/01 09:14:04;;;;;;;0.85;0.75;;;16.70;60.30;;;;;;5052398;28;20176;-68
2023/04/01 09:17:16;;;;;;;1.20;0.70;;;16.70;60.50;;;;;;5054516;28;20179;-65
2023/04/01 09:20:19;;;;;;;1.63;0.60;;;16.70;60.20;;;;;;5055693;28;20217;-65
2023/04/01 09:23:12;;;;;;;1.35;0.70;;;16.60;60.20;;;;;;5054809;28;20230;-65
2023/04/01 09:25:59;;;;;;;0.52;0.52;;;16.60;60.30;;;;;;5054459;28;20167;-66
2023/04/01 09:28:34;;;;;;;2.20;0.70;;;16.60;60.40;;;;;;5053855;28;20185;-67
2023/04/01 09:31:21;;;;;;;0.50;0.50;;;16.60;60.40;;;;;;5052980;28;20171;-66
2023/04/01 09:34:04;;;;;;;1.48;0.73;;;16.60;60.70;;;;;;5033523;28;20195;-67
2023/04/01 09:36:38;;;;;;;2.70;0.80;;;16.60;60.40;;;;;;5034140;28;20569;-65
2023/04/01 09:39:34;;;;;;;0.90;0.90;;;16.60;61.00;;;;;;5034521;28;20212;-63
2023/04/01 09:42:00;;;;;;;2.15;0.73;;;16.60;60.90;;;;;;5033516;28;20214;-64
2023/04/01 09:44:33;;;;;;;0.73;0.60;;;16.60;60.80;;;;;;5034002;28;20689;-65
2023/04/01 09:46:58;;;;;;;1.95;0.60;;;16.50;61.30;;;;;;5033425;28;20210;-64
2023/04/01 09:49:43;;;;;;;1.60;0.75;;;16.60;61.20;;;;;;5034677;28;20203;-64
2023/04/01 09:52:31;;;;;;;0.43;0.43;;;16.50;60.90;;;;;;5034040;28;20172;-63
2023/04/01 09:55:03;;;;;;;1.35;0.50;;;16.60;60.80;;;;;;5033054;28;20230;-63
2023/04/01 09:57:35;;;;;;;1.13;0.70;;;16.50;60.80;;;;;;5032538;28;20283;-64
2023/04/01 10:00:09;;;;;;;1.08;0.50;;;16.50;60.90;;;;;;5034054;28;20634;-64
2023/04/01 10:03:11;;;;;;;1.20;0.60;;;16.50;60.90;;;;;;5034716;28;20234;-64
2023/04/01 10:06:01;;;;;;;0.70;0.70;;;16.50;60.90;;;;;;5032566;28;20183;-64
2023/04/01 10:08:54;;;;;;;2.40;0.70;;;16.50;60.90;;;;;;5034279;28;20270;-63
2023/04/01 10:11:42;;;;;;;2.33;0.85;;;16.50;60.90;;;;;;5034209;28;20657;-63
2023/04/01 10:14:30;;;;;;;2.10;0.70;;;16.50;61.00;;;;;;5034235;28;20171;-61
2023/04/01 10:17:09;;;;;;;7.07;1.15;;;16.50;61.30;;;;;;5032699;28;20180;-66
2023/04/01 10:19:53;;;;;;;0.90;0.60;;;16.50;61.30;;;;;;5032067;28;20211;-66
2023/04/01 10:22:29;;;;;;;0.50;0.50;;;16.50;61.40;;;;;;5033662;28;20632;-65
2023/04/01 10:25:10;;;;;;;2.85;0.80;;;16.50;61.10;;;;;;5032361;28;20225;-67
2023/04/01 10:27:44;;;;;;;0.43;0.43;;;16.50;61.10;;;;;;5032272;28;20199;-67
2023/04/01 10:30:18;;;;;;;4.50;0.60;;;16.50;61.10;;;;;;5034033;28;20182;-66
2023/04/01 10:33:18;;;;;;;1.42;0.50;;;16.50;61.10;;;;;;5032933;28;20484;-67
2023/04/01 10:36:14;;;;;;;1.92;0.60;;;16.50;60.90;;;;;;5033644;28;20264;-65
2023/04/01 10:38:58;;;;;;;1.08;0.40;;;16.50;60.90;;;;;;5033725;28;20204;-67
2023/04/01 10:41:45;;;;;;;1.05;0.40;;;16.50;60.90;;;;;;5033071;28;20184;-64
2023/04/01 10:44:37;;;;;;;1.88;0.70;;;16.50;61.20;;;;;;5033664;28;20175;-63
2023/04/01 10:47:14;;;;;;;2.38;0.90;;;16.50;60.90;;;;;;5031313;28;20175;-63
2023/04/01 10:50:01;;;;;;;0.73;0.52;;;16.50;60.80;;;;;;5033539;28;20176;-63
2023/04/01 10:52:36;;;;;;;1.27;0.50;;;16.50;60.60;;;;;;5033529;28;20179;-63
2023/04/01 10:55:29;;;;;;;1.85;0.55;;;16.50;60.70;;;;;;5032500;28;20171;-64
2023/04/01 10:58:00;;;;;;;1.52;0.50;;;16.50;60.60;;;;;;5032106;28;20210;-64
2023/04/01 11:00:49;;;;;;;0.73;0.60;;;16.50;60.60;;;;;;5033212;28;20207;-64
2023/04/01 11:03:39;;;;;;;2.00;0.50;;;16.50;60.60;;;;;;5032246;28;20625;-63
2023/04/01 11:06:39;;;;;;;0.77;0.50;;;16.50;60.40;;;;;;5031797;28;20176;-62
2023/04/01 11:09:34;;;;;;;1.13;0.50;;;16.50;60.40;;;;;;5032376;28;20179;-62
2023/04/01 11:12:27;;;;;;;1.92;0.60;;;16.50;60.50;;;;;;5031711;28;20176;-64
2023/04/01 11:15:34;;;;;;;2.05;0.60;;;16.50;60.80;;;;;;5030940;28;20183;-65
2023/04/01 11:18:24;;;;;;;0.65;0.47;;;16.50;61.20;;;;;;5047863;28;20241;-62
2023/04/01 11:21:15;;;;;;;1.10;0.55;;;16.50;60.90;;;;;;5032833;28;20266;-61
2023/04/01 11:24:01;;;;;;;5.80;0.70;;;16.50;61.40;;;;;;5031606;28;20179;-62
2023/04/01 11:26:43;;;;;;;2.08;0.60;;;16.50;61.60;;;;;;5032698;28;20229;-63
2023/04/01 11:29:12;;;;;;;1.85;0.82;;;16.40;61.70;;;;;;5031483;28;20536;-62
2023/04/01 11:31:46;;;;;;;2.20;0.63;;;16.40;61.40;;;;;;5033527;28;20237;-64
2023/04/01 11:34:26;;;;;;;3.17;0.75;;;16.40;61.40;;;;;;5033379;28;20642;-63
2023/04/01 11:37:19;;;;;;;1.30;0.40;;;16.40;61.30;;;;;;5031312;28;20259;-63
2023/04/01 11:40:31;;;;;;;1.10;0.60;;;16.40;61.30;;;;;;5031595;28;20246;-62
2023/04/01 11:43:31;;;;;;;1.27;0.40;;;16.40;61.30;;;;;;5032260;28;20634;-64
2023/04/01 11:46:24;;;;;;;1.55;0.50;;;16.40;61.20;;;;;;5031966;28;20176;-63
2023/04/01 11:49:21;;;;;;;3.85;0.60;;;16.40;61.10;;;;;;5033058;28;20168;-63
2023/04/01 11:52:22;;;;;;;1.60;0.70;;;16.40;61.10;;;;;;5032245;28;20176;-63
2023/04/01 11:55:00;;;;;;;0.95;0.60;;;16.40;61.10;;;;;;5014319;28;20184;-63
2023/04/01 11:57:41;;;;;;;1.45;0.55;;;16.30;60.90;;;;;;5032551;28;20179;-63
2023/04/01 12:00:41;;;;;;;0.50;0.50;;;16.30;60.90;;;;;;5032724;28;20218;-63
2023/04/01 12:03:38;;;;;;;0.57;0.57;;;16.30;61.00;;;;;;5027625;28;20188;-63
2023/04/01 12:06:37;;;;;;;0.85;0.50;;;16.30;61.00;;;;;;5031960;28;20198;-63
2023/04/01 12:09:31;;;;;;;2.50;0.40;;;16.40;61.00;;;;;;5032543;28;20650;-63
2023/04/01 12:12:41;;;;;;;0.65;0.50;;;16.40;61.00;;;;;;5031041;28;20180;-63
2023/04/01 12:15:26;;;;;;;0.47;0.40;;;16.40;61.00;;;;;;5029871;28;20184;-63
2023/04/01 12:17:57;;;;;;;1.75;0.50;;;16.40;60.80;;;;;;5031640;28;20206;-63
2023/04/01 12:20:44;;;;;;;1.98;0.45;;;16.40;60.90;;;;;;5030850;28;20219;-63
2023/04/01 12:23:20;;;;;;;0.70;0.50;;;16.50;61.00;;;;;;5032803;28;20180;-62
2023/04/01 12:26:04;;;;;;;0.73;0.50;;;16.40;60.80;;;;;;5030809;28;20183;-62
2023/04/01 12:28:39;;;;;;;0.50;0.50;;;16.50;61.00;;;;;;5033205;28;20191;-63
2023/04/01 12:31:13;;;;;;;1.35;0.47;;;16.50;61.00;;;;;;5032475;28;20269;-63
2023/04/01 12:34:20;;;;;;;1.95;0.63;;;16.50;61.10;;;;;;5030937;28;20194;-64
2023/04/01 12:37:17;;;;;;;1.98;0.57;;;16.40;61.10;;;;;;5022115;28;20184;-63
2023/04/01 12:39:55;;;;;;;0.93;0.52;;;16.40;61.00;;;;;;5031654;28;20216;-63
2023/04/01 12:42:35;;;;;;;1.83;0.60;;;16.50;61.10;;;;;;5032770;28;20217;-63
2023/04/01 12:45:23;;;;;;;0.40;0.40;;;16.50;60.90;;;;;;5032830;28;20176;-63
2023/04/01 12:48:08;;;;;;;1.60;0.52;;;16.50;60.80;;;;;;5030659;28;20186;-64
2023/04/01 12:51:04;;;;;;;0.47;0.45;;;16.50;60.70;;;;;;5032960;28;20215;-63
2023/04/01 12:53:48;;;;;;;0.93;0.57;;;16.50;60.60;;;;;;5050069;28;20180;-63
2023/04/01 12:56:22;;;;;;;2.28;1.15;;;16.50;60.70;;;;;;5036546;28;20176;-63
2023/04/01 12:59:07;;;;;;;1.05;0.50;;;16.50;60.90;;;;;;5035028;28;20179;-64
2023/04/01 13:01:59;;;;;;;0.93;0.60;;;16.60;61.00;;;;;;5034708;28;20184;-64
2023/04/01 13:04:34;;;;;;;1.98;0.40;;;16.50;61.00;;;;;;5035419;28;20521;-64
2023/04/01 13:07:38;;;;;;;2.00;0.55;;;16.50;61.00;;;;;;5035882;28;20186;-63
2023/04/01 13:10:12;;;;;;;0.98;0.60;;;16.50;60.80;;;;;;5035438;28;20267;-63
2023/04/01 13:12:40;;;;;;;1.38;0.70;;;16.50;60.70;;;;;;5034347;28;20279;-63
2023/04/01 13:15:25;;;;;;;0.55;0.40;;;16.60;60.60;;;;;;5034799;28;20259;-63
2023/04/01 13:18:12;;;;;;;0.40;0.40;;;16.60;60.50;;;;;;5035129;28;20171;-62
2023/04/01 13:20:45;;;;;;;1.48;0.45;;;16.60;60.50;;;;;;5034991;28;20247;-62
2023/04/01 13:23:32;;;;;;;0.47;0.47;;;16.60;60.60;;;;;;5033576;28;20619;-62
2023/04/01 13:26:08;;;;;;;1.52;0.50;;;16.60;60.60;;;;;;5033673;28;20192;-62
2023/04/01 13:28:52;;;;;;;0.50;0.50;;;16.60;60.60;;;;;;5034335;28;20666;-63
2023/04/01 13:31:29;;;;;;;1.08;0.60;;;16.50;60.70;;;;;;5034080;28;20180;-64
2023/04/01 13:33:57;;;;;;;0.70;0.47;;;16.50;60.90;;;;;;5033394;28;20642;-64